createdAt,value
2023-05-24T00:01:25.803Z,8.36
2023-05-24T00:03:54.438Z,8.31
2023-05-24T00:06:21.849Z,8.33
2023-05-24T00:08:49.165Z,8.28
2023-05-24T00:11:16.434Z,8.28
2023-05-24T00:13:43.804Z,8.25
2023-05-24T00:16:11.568Z,8.24
2023-05-24T00:18:41.102Z,8.22
2023-05-24T00:21:08.757Z,8.19
2023-05-24T00:23:38.653Z,8.17
2023-05-24T00:26:06.814Z,8.14
2023-05-24T00:28:34.574Z,8.10
2023-05-24T00:31:02.617Z,8.07
2023-05-24T00:33:29.991Z,8.05
2023-05-24T00:35:57.461Z,8.01
2023-05-24T00:38:26.677Z,7.99
2023-05-24T00:40:56.481Z,7.96
2023-05-24T00:43:24.475Z,7.95
2023-05-24T00:46:26.375Z,7.92
2023-05-24T00:48:56.066Z,7.89
2023-05-24T00:51:26.506Z,7.89
2023-05-24T00:53:54.773Z,7.86
2023-05-24T00:56:23.085Z,7.80
2023-05-24T00:58:54.903Z,7.83
2023-05-24T01:01:30.889Z,7.84
2023-05-24T01:03:59.870Z,7.83
2023-05-24T01:06:29.153Z,7.82
2023-05-24T01:09:33.725Z,7.80
2023-05-24T01:12:43.890Z,7.77
2023-05-24T01:15:37.267Z,7.72
2023-05-24T01:18:22.181Z,7.71
2023-05-24T01:21:09.979Z,7.68
2023-05-24T01:24:25.965Z,7.66
2023-05-24T01:27:13.209Z,7.64
2023-05-24T01:29:42.713Z,7.63
2023-05-24T01:32:10.754Z,7.58
2023-05-24T01:34:43.289Z,7.58
2023-05-24T01:37:10.719Z,7.56
2023-05-24T01:39:40.504Z,7.52
2023-05-24T01:43:11.219Z,7.52
2023-05-24T01:46:47.707Z,7.48
2023-05-24T01:49:27.300Z,7.46
2023-05-24T01:52:11.445Z,7.44
2023-05-24T01:54:45.956Z,7.43
2023-05-24T01:57:14.912Z,7.40
2023-05-24T01:59:45.640Z,7.40
2023-05-24T02:02:16.248Z,7.39
2023-05-24T02:04:43.892Z,7.39
2023-05-24T02:07:11.326Z,7.35
2023-05-24T02:09:38.772Z,7.35
2023-05-24T02:12:08.440Z,7.32
2023-05-24T02:14:38.027Z,7.28
2023-05-24T02:17:06.198Z,7.26
2023-05-24T02:19:34.753Z,7.26
2023-05-24T02:22:02.355Z,7.22
2023-05-24T02:24:30.934Z,7.20
2023-05-24T02:26:58.303Z,7.15
2023-05-24T02:29:27.432Z,7.10
2023-05-24T02:31:56.754Z,7.10
2023-05-24T02:34:24.638Z,7.05
2023-05-24T02:36:54.368Z,7.02
2023-05-24T02:39:21.701Z,6.98
2023-05-24T02:41:49.066Z,6.93
2023-05-24T02:44:16.916Z,6.91
2023-05-24T02:46:44.227Z,6.88
2023-05-24T02:49:11.688Z,6.84
2023-05-24T02:51:39.001Z,6.84
2023-05-24T02:54:06.643Z,6.80
2023-05-24T02:56:34.773Z,6.81
2023-05-24T02:59:02.877Z,6.77
2023-05-24T03:01:34.051Z,6.75
2023-05-24T03:04:02.475Z,6.73
2023-05-24T03:06:31.137Z,6.71
2023-05-24T03:08:59.248Z,6.68
2023-05-24T03:11:27.241Z,6.67
2023-05-24T03:13:54.702Z,6.64
2023-05-24T03:16:22.158Z,6.64
2023-05-24T03:18:55.316Z,6.63
2023-05-24T03:21:25.197Z,6.60
2023-05-24T03:23:52.617Z,6.60
2023-05-24T03:26:20.789Z,6.59
2023-05-24T03:28:50.559Z,6.57
2023-05-24T03:31:22.120Z,6.54
2023-05-24T03:33:49.596Z,6.52
2023-05-24T03:36:16.930Z,6.48
2023-05-24T03:38:45.048Z,6.40
2023-05-24T03:41:12.863Z,6.43
2023-05-24T03:43:40.443Z,6.42
2023-05-24T03:46:13.091Z,6.41
2023-05-24T03:48:42.013Z,6.40
2023-05-24T03:51:09.402Z,6.40
2023-05-24T03:53:36.910Z,6.39
2023-05-24T03:56:04.293Z,6.41
2023-05-24T03:58:32.166Z,6.34
2023-05-24T04:00:59.874Z,6.42
2023-05-24T04:03:27.706Z,6.46
2023-05-24T04:05:56.192Z,6.47
2023-05-24T04:08:23.534Z,6.48
2023-05-24T04:10:51.255Z,6.49
2023-05-24T04:13:18.593Z,6.50
2023-05-24T04:15:46.010Z,6.52
2023-05-24T04:18:14.622Z,6.55
2023-05-24T04:20:42.206Z,6.56
2023-05-24T04:23:10.745Z,6.60
2023-05-24T04:25:38.178Z,6.62
2023-05-24T04:28:06.220Z,6.64
2023-05-24T04:30:33.875Z,6.61
2023-05-24T04:33:01.853Z,6.71
2023-05-24T04:35:30.836Z,6.70
2023-05-24T04:37:59.771Z,6.83
2023-05-24T04:40:27.274Z,6.93
2023-05-24T04:42:54.747Z,7.08
2023-05-24T04:45:23.236Z,7.32
2023-05-24T04:47:50.789Z,7.48
2023-05-24T04:50:19.498Z,7.52
2023-05-24T04:52:46.976Z,7.57
2023-05-24T04:55:15.795Z,7.59
2023-05-24T04:57:43.101Z,7.63
2023-05-24T05:00:11.952Z,7.64
2023-05-24T05:02:39.453Z,7.66
2023-05-24T05:05:08.037Z,7.71
2023-05-24T05:07:35.350Z,7.76
2023-05-24T05:10:02.731Z,7.78
2023-05-24T05:12:30.040Z,7.80
2023-05-24T05:14:57.507Z,7.92
2023-05-24T05:17:26.181Z,7.98
2023-05-24T05:19:53.516Z,8.01
2023-05-24T05:22:20.849Z,8.01
2023-05-24T05:24:48.170Z,8.10
2023-05-24T05:27:15.576Z,8.18
2023-05-24T05:29:42.966Z,8.22
2023-05-24T05:32:10.457Z,8.25
2023-05-24T05:34:38.989Z,8.32
2023-05-24T05:37:06.361Z,8.35
2023-05-24T05:39:33.850Z,8.43
2023-05-24T05:42:02.390Z,8.51
2023-05-24T05:44:29.889Z,8.64
2023-05-24T05:46:57.239Z,8.79
2023-05-24T05:49:25.731Z,8.87
2023-05-24T05:51:53.376Z,9.00
2023-05-24T05:54:20.696Z,9.11
2023-05-24T05:56:51.134Z,9.14
2023-05-24T05:59:19.517Z,9.26
2023-05-24T06:01:48.869Z,9.33
2023-05-24T06:04:17.091Z,9.39
2023-05-24T06:06:49.599Z,9.48
2023-05-24T06:09:17.592Z,9.59
2023-05-24T06:11:45.073Z,9.70
2023-05-24T06:14:13.529Z,9.72
2023-05-24T06:16:43.564Z,9.78
2023-05-24T06:19:11.324Z,9.86
2023-05-24T06:21:41.023Z,9.85
2023-05-24T06:24:09.826Z,9.95
2023-05-24T06:26:37.629Z,9.98
2023-05-24T06:29:07.074Z,10.13
2023-05-24T06:31:34.833Z,10.18
2023-05-24T06:34:04.809Z,10.20
2023-05-24T06:36:35.910Z,10.28
2023-05-24T06:39:05.017Z,10.37
2023-05-24T06:41:32.315Z,10.44
2023-05-24T06:44:00.357Z,10.55
2023-05-24T06:46:27.739Z,10.64
2023-05-24T06:48:58.302Z,10.80
2023-05-24T06:51:25.804Z,11.07
2023-05-24T06:53:53.243Z,11.33
2023-05-24T06:56:20.583Z,11.44
2023-05-24T06:58:48.263Z,11.70
2023-05-24T07:01:16.635Z,11.79
2023-05-24T07:03:44.254Z,12.07
2023-05-24T07:06:14.415Z,12.26
2023-05-24T07:08:42.672Z,12.43
2023-05-24T07:11:10.745Z,12.62
2023-05-24T07:13:38.094Z,12.69
2023-05-24T07:16:07.184Z,12.71
2023-05-24T07:18:34.569Z,12.76
2023-05-24T07:21:01.915Z,12.77
2023-05-24T07:23:29.643Z,12.73
2023-05-24T07:25:57.248Z,12.65
2023-05-24T07:28:24.776Z,12.62
2023-05-24T07:30:52.510Z,12.76
2023-05-24T07:33:20.238Z,12.78
2023-05-24T07:35:51.528Z,12.84
2023-05-24T07:38:19.317Z,12.86
2023-05-24T07:40:48.025Z,12.85
2023-05-24T07:43:17.556Z,12.80
2023-05-24T07:45:45.092Z,12.79
2023-05-24T07:48:13.248Z,12.91
2023-05-24T07:50:42.346Z,13.12
2023-05-24T07:53:09.929Z,13.18
2023-05-24T07:55:37.433Z,13.43
2023-05-24T07:58:04.689Z,13.65
2023-05-24T08:00:33.838Z,13.63
2023-05-24T08:03:01.241Z,13.62
2023-05-24T08:05:29.054Z,13.70
2023-05-24T08:07:57.444Z,13.89
2023-05-24T08:10:25.284Z,13.92
2023-05-24T08:12:54.929Z,13.96
2023-05-24T08:15:22.516Z,13.98
2023-05-24T08:17:50.074Z,14.08
2023-05-24T08:20:17.864Z,14.37
2023-05-24T08:22:45.404Z,14.42
2023-05-24T08:25:12.744Z,14.49
2023-05-24T08:27:40.306Z,14.91
2023-05-24T08:30:09.246Z,15.27
2023-05-24T08:32:36.793Z,15.80
2023-05-24T08:35:19.314Z,16.27
2023-05-24T08:37:48.443Z,16.90
2023-05-24T08:40:16.751Z,16.91
2023-05-24T08:42:46.765Z,16.69
2023-05-24T08:45:16.382Z,16.40
2023-05-24T08:47:47.526Z,16.13
2023-05-24T08:50:15.617Z,15.81
2023-05-24T08:52:45.604Z,15.48
2023-05-24T08:55:16.309Z,15.34
2023-05-24T08:57:46.123Z,15.53
2023-05-24T09:00:14.761Z,15.97
2023-05-24T09:02:45.657Z,16.61
2023-05-24T09:05:17.250Z,17.20
2023-05-24T09:07:46.712Z,17.44
2023-05-24T09:10:15.943Z,17.69
2023-05-24T09:12:55.693Z,17.43
2023-05-24T09:15:23.999Z,17.06
2023-05-24T09:17:51.444Z,16.84
2023-05-24T09:20:23.294Z,16.62
2023-05-24T09:22:55.830Z,16.34
2023-05-24T09:25:28.022Z,16.14
2023-05-24T09:27:56.454Z,16.23
2023-05-24T09:30:23.886Z,16.47
2023-05-24T09:33:01.013Z,16.57
2023-05-24T09:35:28.862Z,16.88
2023-05-24T09:38:00.185Z,16.84
2023-05-24T09:40:29.799Z,16.93
2023-05-24T09:43:10.036Z,16.95
2023-05-24T09:45:47.454Z,17.24
2023-05-24T09:48:17.354Z,17.63
2023-05-24T09:50:48.093Z,18.15
2023-05-24T09:53:19.283Z,18.78
2023-05-24T09:55:48.861Z,19.22
2023-05-24T09:58:17.750Z,19.22
2023-05-24T10:00:45.449Z,18.87
2023-05-24T10:03:15.432Z,18.35
2023-05-24T10:05:46.945Z,17.99
2023-05-24T10:08:16.016Z,17.69
2023-05-24T10:10:46.012Z,17.27
2023-05-24T10:13:16.445Z,16.79
2023-05-24T10:15:47.066Z,16.45
2023-05-24T10:18:23.024Z,16.19
2023-05-24T10:20:54.999Z,15.93
2023-05-24T10:23:26.853Z,15.68
2023-05-24T10:26:12.020Z,15.53
2023-05-24T10:28:48.859Z,15.36
2023-05-24T10:31:26.785Z,15.31
2023-05-24T10:36:46.823Z,15.15
2023-05-24T10:39:14.477Z,15.16
2023-05-24T10:41:42.483Z,15.16
2023-05-24T10:41:49.890Z,15.17
2023-05-24T10:44:18.293Z,15.17
2023-05-24T10:47:15.732Z,15.17
2023-05-24T10:50:04.760Z,15.12
2023-05-24T10:52:37.016Z,15.15
2023-05-24T10:55:09.864Z,15.26
2023-05-24T10:57:39.463Z,15.41
2023-05-24T11:03:09.158Z,15.53
2023-05-24T11:05:57.130Z,15.60
2023-05-24T11:08:43.612Z,15.67
2023-05-24T11:11:26.749Z,15.80
2023-05-24T11:14:01.368Z,15.92
2023-05-24T11:16:40.416Z,15.93
2023-05-24T11:19:35.590Z,16.06
2023-05-24T11:22:09.787Z,16.05
2023-05-24T11:24:38.368Z,16.01
2023-05-24T11:27:06.559Z,16.05
2023-05-24T11:29:45.436Z,16.04
2023-05-24T11:32:21.068Z,16.08
2023-05-24T11:34:49.754Z,16.23
2023-05-24T11:37:19.058Z,16.42
2023-05-24T11:39:54.282Z,16.64
2023-05-24T11:42:25.010Z,16.77
2023-05-24T11:44:53.831Z,16.77
2023-05-24T11:47:22.624Z,16.90
2023-05-24T11:49:52.841Z,17.10
2023-05-24T11:52:21.334Z,17.19
2023-05-24T11:54:50.823Z,17.24
2023-05-24T11:57:29.686Z,17.20
2023-05-24T12:00:02.647Z,17.30
2023-05-24T12:02:50.066Z,17.38
2023-05-24T12:05:19.761Z,17.22
2023-05-24T12:07:48.943Z,17.17
2023-05-24T12:10:17.947Z,17.20
2023-05-24T12:12:46.836Z,17.20
2023-05-24T12:15:15.791Z,17.08
2023-05-24T12:17:50.290Z,17.05
2023-05-24T12:20:22.306Z,16.97
2023-05-24T12:22:52.859Z,16.73
2023-05-24T12:25:23.166Z,16.73
2023-05-24T12:27:56.515Z,16.56
2023-05-24T12:30:29.144Z,16.44
2023-05-24T12:32:57.749Z,16.38
2023-05-24T12:35:25.372Z,16.35
2023-05-24T12:38:00.204Z,16.42
2023-05-24T12:40:33.582Z,16.51
2023-05-24T12:43:01.131Z,16.67
2023-05-24T12:45:28.542Z,16.76
2023-05-24T12:47:59.832Z,16.90
2023-05-24T12:50:27.618Z,16.97
2023-05-24T12:52:58.832Z,17.11
2023-05-24T12:55:28.447Z,17.20
2023-05-24T12:57:57.503Z,17.19
2023-05-24T13:00:28.916Z,17.13
2023-05-24T13:02:58.958Z,17.09
2023-05-24T13:05:28.517Z,17.13
2023-05-24T13:07:57.502Z,17.09
2023-05-24T13:10:28.917Z,16.90
2023-05-24T13:12:57.479Z,16.87
2023-05-24T13:15:27.259Z,16.87
2023-05-24T13:17:56.271Z,17.18
2023-05-24T13:20:24.473Z,17.53
2023-05-24T13:22:53.581Z,18.02
2023-05-24T13:25:24.637Z,18.73
2023-05-24T13:27:52.046Z,19.16
2023-05-24T13:30:27.363Z,19.38
2023-05-24T13:32:56.047Z,19.92
2023-05-24T13:35:23.537Z,20.29
2023-05-24T13:37:57.959Z,20.22
2023-05-24T13:40:26.258Z,20.05
2023-05-24T13:42:57.181Z,19.92
2023-05-24T13:45:25.516Z,19.80
2023-05-24T13:47:53.841Z,19.44
2023-05-24T13:50:23.785Z,19.07
2023-05-24T13:52:52.549Z,18.81
2023-05-24T13:55:20.117Z,18.54
2023-05-24T13:57:51.676Z,18.19
2023-05-24T14:00:22.120Z,17.75
2023-05-24T14:02:50.993Z,17.41
2023-05-24T14:05:27.493Z,17.14
2023-05-24T14:08:06.164Z,17.01
2023-05-24T14:10:37.626Z,16.85
2023-05-24T14:15:38.206Z,16.59
2023-05-24T14:18:08.718Z,16.60
2023-05-24T14:20:38.378Z,16.56
2023-05-24T14:23:07.926Z,16.60
2023-05-24T14:25:37.258Z,16.65
2023-05-24T14:28:05.885Z,16.66
2023-05-24T14:30:33.336Z,16.63
2023-05-24T14:33:04.078Z,16.72
2023-05-24T14:35:38.014Z,16.80
2023-05-24T14:38:11.952Z,16.76
2023-05-24T14:40:42.734Z,16.67
2023-05-24T14:43:13.885Z,16.57
2023-05-24T14:45:42.264Z,16.44
2023-05-24T14:48:12.469Z,16.37
2023-05-24T14:50:41.338Z,16.29
2023-05-24T14:53:12.038Z,16.26
2023-05-24T14:55:43.492Z,16.23
2023-05-24T14:58:12.254Z,16.20
2023-05-24T15:00:43.956Z,16.24
2023-05-24T15:03:13.009Z,16.20
2023-05-24T15:05:42.603Z,16.16
2023-05-24T15:08:11.498Z,16.13
2023-05-24T15:10:39.466Z,16.17
2023-05-24T15:13:06.883Z,16.14
2023-05-24T15:15:34.283Z,16.16
2023-05-24T15:18:01.832Z,16.22
2023-05-24T15:20:29.303Z,16.20
2023-05-24T15:22:56.776Z,16.24
2023-05-24T15:25:24.722Z,16.21
2023-05-24T15:27:52.125Z,16.24
2023-05-24T15:30:21.183Z,16.28
2023-05-24T15:32:48.503Z,16.30
2023-05-24T15:35:17.891Z,16.36
2023-05-24T15:37:46.696Z,16.35
2023-05-24T15:40:15.110Z,16.37
2023-05-24T15:42:42.549Z,16.39
2023-05-24T15:45:11.378Z,16.41
2023-05-24T15:47:40.430Z,16.35
2023-05-24T15:50:09.348Z,16.35
2023-05-24T15:52:37.087Z,16.33
2023-05-24T15:55:05.257Z,16.23
2023-05-24T15:57:32.782Z,16.18
2023-05-24T16:00:01.241Z,16.11
2023-05-24T16:02:30.413Z,15.98
2023-05-24T16:04:58.201Z,16.00
2023-05-24T16:07:25.533Z,16.02
2023-05-24T16:09:52.909Z,16.04
2023-05-24T16:12:21.231Z,16.04
2023-05-24T16:14:48.726Z,16.02
2023-05-24T16:17:17.199Z,15.98
2023-05-24T16:19:49.546Z,15.98
2023-05-24T16:22:17.355Z,16.02
2023-05-24T16:24:44.921Z,16.05
2023-05-24T16:27:12.453Z,16.02
2023-05-24T16:29:39.965Z,16.04
2023-05-24T16:32:08.901Z,16.04
2023-05-24T16:34:52.100Z,16.06
2023-05-24T16:37:19.649Z,16.06
2023-05-24T16:39:47.019Z,16.09
2023-05-24T16:42:14.370Z,16.11
2023-05-24T16:44:41.904Z,16.13
2023-05-24T16:47:09.520Z,16.17
2023-05-24T16:49:36.821Z,16.18
2023-05-24T16:52:04.578Z,16.18
2023-05-24T16:54:31.968Z,16.13
2023-05-24T16:56:59.509Z,16.10
2023-05-24T16:59:27.024Z,16.14
2023-05-24T17:01:54.458Z,16.13
2023-05-24T17:04:21.813Z,16.12
2023-05-24T17:06:49.140Z,16.00
2023-05-24T17:09:16.742Z,15.85
2023-05-24T17:11:44.015Z,15.74
2023-05-24T17:14:13.524Z,15.63
2023-05-24T17:16:40.944Z,15.56
2023-05-24T17:19:09.562Z,15.56
2023-05-24T17:21:36.861Z,15.57
2023-05-24T17:24:04.261Z,15.52
2023-05-24T17:26:31.663Z,15.50
2023-05-24T17:28:59.093Z,15.46
2023-05-24T17:31:26.471Z,15.33
2023-05-24T17:33:54.177Z,15.25
2023-05-24T17:36:21.536Z,15.19
2023-05-24T17:38:48.794Z,15.10
2023-05-24T17:41:16.855Z,15.02
2023-05-24T17:43:44.311Z,14.98
2023-05-24T17:46:13.467Z,14.93
2023-05-24T17:48:42.729Z,14.90
2023-05-24T17:51:10.932Z,14.86
2023-05-24T17:53:40.972Z,14.88
2023-05-24T17:56:09.320Z,14.91
2023-05-24T17:58:37.422Z,14.94
2023-05-24T18:01:07.731Z,14.98
2023-05-24T18:03:37.501Z,14.98
2023-05-24T18:06:07.461Z,15.02
2023-05-24T18:08:38.346Z,15.01
2023-05-24T18:11:10.166Z,14.96
2023-05-24T18:13:41.772Z,14.86
2023-05-24T18:16:11.417Z,14.75
2023-05-24T18:18:39.627Z,14.63
2023-05-24T18:21:10.131Z,14.55
2023-05-24T18:23:38.140Z,14.50
2023-05-24T18:26:11.964Z,14.45
2023-05-24T18:28:42.125Z,14.41
2023-05-24T18:31:16.122Z,14.30
2023-05-24T18:33:43.589Z,14.27
2023-05-24T18:36:12.521Z,14.18
2023-05-24T18:38:40.546Z,14.11
2023-05-24T18:41:12.141Z,14.07
2023-05-24T18:43:40.360Z,13.94
2023-05-24T18:46:08.958Z,13.93
2023-05-24T18:48:36.335Z,13.88
2023-05-24T18:51:03.766Z,13.80
2023-05-24T18:53:32.644Z,13.76
2023-05-24T18:55:59.958Z,13.70
2023-05-24T18:58:27.367Z,13.66
2023-05-24T19:00:54.797Z,13.58
2023-05-24T19:03:22.578Z,13.53
2023-05-24T19:05:50.179Z,13.48
2023-05-24T19:08:18.400Z,13.42
2023-05-24T19:10:45.666Z,13.35
2023-05-24T19:13:12.930Z,13.31
2023-05-24T19:15:40.219Z,13.29
2023-05-24T19:18:08.250Z,13.24
2023-05-24T19:20:35.709Z,13.17
2023-05-24T19:23:03.173Z,13.12
2023-05-24T19:25:31.329Z,13.06
2023-05-24T19:28:00.476Z,13.00
2023-05-24T19:30:29.089Z,12.96
2023-05-24T19:32:56.568Z,12.88
2023-05-24T19:35:23.982Z,12.83
2023-05-24T19:37:52.206Z,12.75
2023-05-24T19:40:20.572Z,12.73
2023-05-24T19:42:48.273Z,12.68
2023-05-24T19:45:16.372Z,12.63
2023-05-24T19:47:45.243Z,12.59
2023-05-24T19:50:12.714Z,12.55
2023-05-24T19:52:40.076Z,12.50
2023-05-24T19:55:08.558Z,12.49
2023-05-24T19:57:35.934Z,12.44
2023-05-24T20:00:05.275Z,12.38
2023-05-24T20:02:38.577Z,12.34
2023-05-24T20:05:07.170Z,12.29
2023-05-24T20:07:34.652Z,12.25
2023-05-24T20:10:02.036Z,12.19
2023-05-24T20:12:30.829Z,12.17
2023-05-24T20:14:58.204Z,12.14
2023-05-24T20:17:25.575Z,12.11
2023-05-24T20:19:52.951Z,12.08
2023-05-24T20:22:21.006Z,12.06
2023-05-24T20:24:48.294Z,12.01
2023-05-24T20:27:15.635Z,11.97
2023-05-24T20:29:43.207Z,11.91
2023-05-24T20:32:10.833Z,11.90
2023-05-24T20:34:38.124Z,11.84
2023-05-24T20:37:06.890Z,11.85
2023-05-24T20:39:34.266Z,11.80
2023-05-24T20:42:02.241Z,11.78
2023-05-24T20:44:29.579Z,11.73
2023-05-24T20:46:56.945Z,11.69
2023-05-24T20:49:24.301Z,11.63
2023-05-24T20:51:51.548Z,11.62
2023-05-24T20:54:18.894Z,11.57
2023-05-24T20:56:46.337Z,11.58
2023-05-24T20:59:13.673Z,11.55
2023-05-24T21:01:41.135Z,11.53
2023-05-24T21:04:09.893Z,11.53
2023-05-24T21:06:37.521Z,11.48
2023-05-24T21:09:04.975Z,11.47
2023-05-24T21:11:32.593Z,11.43
2023-05-24T21:13:59.896Z,11.41
2023-05-24T21:16:27.280Z,11.37
2023-05-24T21:18:54.965Z,11.35
2023-05-24T21:21:24.004Z,11.32
2023-05-24T21:23:51.297Z,11.29
2023-05-24T21:26:18.790Z,11.23
2023-05-24T21:28:46.352Z,11.21
2023-05-24T21:31:13.814Z,11.19
2023-05-24T21:33:43.373Z,11.17
2023-05-24T21:36:11.185Z,11.14
2023-05-24T21:38:38.637Z,11.09
2023-05-24T21:41:06.167Z,11.08
2023-05-24T21:43:33.408Z,11.06
2023-05-24T21:46:00.795Z,11.02
2023-05-24T21:48:28.087Z,11.01
2023-05-24T21:50:55.403Z,10.99
2023-05-24T21:53:22.766Z,10.97
2023-05-24T21:55:50.615Z,10.95
2023-05-24T21:58:18.024Z,10.89
2023-05-24T22:00:45.347Z,10.89
2023-05-24T22:03:14.090Z,10.84
2023-05-24T22:05:41.555Z,10.82
2023-05-24T22:08:08.861Z,10.77
2023-05-24T22:10:36.104Z,10.73
2023-05-24T22:13:03.404Z,10.70
2023-05-24T22:15:31.270Z,10.69
2023-05-24T22:18:01.446Z,10.64
2023-05-24T22:20:30.550Z,10.59
2023-05-24T22:22:58.910Z,10.56
2023-05-24T22:25:26.304Z,10.53
2023-05-24T22:27:55.910Z,10.50
2023-05-24T22:30:23.882Z,10.45
2023-05-24T22:32:51.536Z,10.42
2023-05-24T22:35:19.244Z,10.36
2023-05-24T22:37:46.493Z,10.34
2023-05-24T22:40:14.213Z,10.29
2023-05-24T22:42:41.640Z,10.26
2023-05-24T22:45:10.090Z,10.21
2023-05-24T22:47:39.796Z,10.19
2023-05-24T22:50:08.853Z,10.18
2023-05-24T22:52:36.110Z,10.16
2023-05-24T22:55:03.881Z,10.14
2023-05-24T22:57:31.318Z,10.13
2023-05-24T22:59:58.652Z,10.12
2023-05-24T23:02:27.555Z,10.10
2023-05-24T23:04:56.179Z,10.02
2023-05-24T23:07:23.596Z,9.98
2023-05-24T23:09:51.123Z,9.95
2023-05-24T23:12:20.941Z,9.93
2023-05-24T23:14:48.431Z,9.91
2023-05-24T23:17:15.991Z,9.91
2023-05-24T23:19:43.832Z,9.89
2023-05-24T23:22:23.721Z,9.87
2023-05-24T23:24:51.159Z,9.84
2023-05-24T23:27:18.693Z,9.81
2023-05-24T23:29:46.262Z,9.76
2023-05-24T23:32:13.738Z,9.74
2023-05-24T23:34:41.731Z,9.73
2023-05-24T23:37:09.090Z,9.73
2023-05-24T23:39:39.387Z,9.70
2023-05-24T23:42:06.882Z,9.68
2023-05-24T23:44:34.351Z,9.66
2023-05-24T23:47:02.480Z,9.62
2023-05-24T23:49:30.018Z,9.61
2023-05-24T23:51:57.519Z,9.57
2023-05-24T23:54:24.929Z,9.52
2023-05-24T23:56:52.304Z,9.50
2023-05-24T23:59:19.679Z,9.48
